sensor_id;sensor_type;location;lat;lon;timestamp;P1;durP1;ratioP1;P2;durP2;ratioP2
81656;SDS011;71067;51.482;-0.580;2023-07-20T00:02:10;2.23;;;1.60;;
81656;SDS011;71067;51.482;-0.580;2023-07-20T00:04:35;3.33;;;2.00;;
81656;SDS011;71067;51.482;-0.580;2023-07-20T00:07:01;2.90;;;1.80;;
81656;SDS011;71067;51.482;-0.580;2023-07-20T00:09:26;2.53;;;1.90;;
81656;SDS011;71067;51.482;-0.580;2023-07-20T00:11:52;2.50;;;1.80;;
81656;SDS011;71067;51.482;-0.580;2023-07-20T00:14:18;4.53;;;2.33;;
81656;SDS011;71067;51.482;-0.580;2023-07-20T00:16:47;3.63;;;2.00;;
81656;SDS011;71067;51.482;-0.580;2023-07-20T00:19:21;2.38;;;1.80;;
81656;SDS011;71067;51.482;-0.580;2023-07-20T00:21:47;2.70;;;2.00;;
81656;SDS011;71067;51.482;-0.580;2023-07-20T00:24:13;3.08;;;1.98;;
81656;SDS011;71067;51.482;-0.580;2023-07-20T00:26:38;2.95;;;1.52;;
81656;SDS011;71067;51.482;-0.580;2023-07-20T00:29:03;4.57;;;1.90;;
81656;SDS011;71067;51.482;-0.580;2023-07-20T00:31:29;2.80;;;2.20;;
81656;SDS011;71067;51.482;-0.580;2023-07-20T00:33:54;2.65;;;1.80;;
81656;SDS011;71067;51.482;-0.580;2023-07-20T00:36:19;3.40;;;2.00;;
81656;SDS011;71067;51.482;-0.580;2023-07-20T00:38:45;2.70;;;1.65;;
81656;SDS011;71067;51.482;-0.580;2023-07-20T00:41:10;3.83;;;2.00;;
81656;SDS011;71067;51.482;-0.580;2023-07-20T00:43:36;2.60;;;1.90;;
81656;SDS011;71067;51.482;-0.580;2023-07-20T00:46:01;2.87;;;2.03;;
81656;SDS011;71067;51.482;-0.580;2023-07-20T00:48:28;3.05;;;2.08;;
81656;SDS011;71067;51.482;-0.580;2023-07-20T00:50:54;2.80;;;2.05;;
81656;SDS011;71067;51.482;-0.580;2023-07-20T00:53:20;3.90;;;1.98;;
81656;SDS011;71067;51.482;-0.580;2023-07-20T00:55:46;5.30;;;1.70;;
81656;SDS011;71067;51.482;-0.580;2023-07-20T00:58:11;3.88;;;1.80;;
81656;SDS011;71067;51.482;-0.580;2023-07-20T01:00:37;3.85;;;2.03;;
81656;SDS011;71067;51.482;-0.580;2023-07-20T01:03:02;3.65;;;1.88;;
81656;SDS011;71067;51.482;-0.580;2023-07-20T01:05:32;3.17;;;1.98;;
81656;SDS011;71067;51.482;-0.580;2023-07-20T01:08:07;2.58;;;1.60;;
81656;SDS011;71067;51.482;-0.580;2023-07-20T01:10:46;4.55;;;1.83;;
81656;SDS011;71067;51.482;-0.580;2023-07-20T01:13:18;3.13;;;1.80;;
81656;SDS011;71067;51.482;-0.580;2023-07-20T01:15:49;2.88;;;1.48;;
81656;SDS011;71067;51.482;-0.580;2023-07-20T01:18:16;3.00;;;1.92;;
81656;SDS011;71067;51.482;-0.580;2023-07-20T01:20:41;2.70;;;1.70;;
81656;SDS011;71067;51.482;-0.580;2023-07-20T01:23:22;2.97;;;1.70;;
81656;SDS011;71067;51.482;-0.580;2023-07-20T01:32:06;2.63;;;1.77;;
81656;SDS011;71067;51.482;-0.580;2023-07-20T01:34:34;4.35;;;1.83;;
81656;SDS011;71067;51.482;-0.580;2023-07-20T01:37:00;4.50;;;1.90;;
81656;SDS011;71067;51.482;-0.580;2023-07-20T01:39:27;2.70;;;1.70;;
81656;SDS011;71067;51.482;-0.580;2023-07-20T01:41:53;2.45;;;1.65;;
81656;SDS011;71067;51.482;-0.580;2023-07-20T01:44:18;2.72;;;1.70;;
81656;SDS011;71067;51.482;-0.580;2023-07-20T01:46:44;3.35;;;1.67;;
81656;SDS011;71067;51.482;-0.580;2023-07-20T01:49:09;3.13;;;1.73;;
81656;SDS011;71067;51.482;-0.580;2023-07-20T01:51:34;2.40;;;1.70;;
81656;SDS011;71067;51.482;-0.580;2023-07-20T01:54:00;2.88;;;2.00;;
81656;SDS011;71067;51.482;-0.580;2023-07-20T01:56:25;3.47;;;2.00;;
81656;SDS011;71067;51.482;-0.580;2023-07-20T01:58:50;4.27;;;1.97;;
81656;SDS011;71067;51.482;-0.580;2023-07-20T02:01:16;3.17;;;2.00;;
81656;SDS011;71067;51.482;-0.580;2023-07-20T02:03:41;2.85;;;1.70;;
81656;SDS011;71067;51.482;-0.580;2023-07-20T02:06:06;2.83;;;1.87;;
81656;SDS011;71067;51.482;-0.580;2023-07-20T02:08:32;2.88;;;1.90;;
81656;SDS011;71067;51.482;-0.580;2023-07-20T02:10:57;3.13;;;1.70;;
81656;SDS011;71067;51.482;-0.580;2023-07-20T02:13:22;3.40;;;2.15;;
81656;SDS011;71067;51.482;-0.580;2023-07-20T02:15:48;3.37;;;2.00;;
81656;SDS011;71067;51.482;-0.580;2023-07-20T02:18:14;3.50;;;1.85;;
81656;SDS011;71067;51.482;-0.580;2023-07-20T02:20:40;3.95;;;1.83;;
81656;SDS011;71067;51.482;-0.580;2023-07-20T02:23:06;2.80;;;1.88;;
81656;SDS011;71067;51.482;-0.580;2023-07-20T02:25:31;2.50;;;1.80;;
81656;SDS011;71067;51.482;-0.580;2023-07-20T02:27:56;3.22;;;1.83;;
81656;SDS011;71067;51.482;-0.580;2023-07-20T02:30:23;3.40;;;2.00;;
81656;SDS011;71067;51.482;-0.580;2023-07-20T02:32:48;5.45;;;2.05;;
81656;SDS011;71067;51.482;-0.580;2023-07-20T02:35:14;4.10;;;2.00;;
81656;SDS011;71067;51.482;-0.580;2023-07-20T02:37:40;3.40;;;1.90;;
81656;SDS011;71067;51.482;-0.580;2023-07-20T02:40:05;2.92;;;1.98;;
81656;SDS011;71067;51.482;-0.580;2023-07-20T02:42:32;2.42;;;1.70;;
81656;SDS011;71067;51.482;-0.580;2023-07-20T02:44:57;3.80;;;2.05;;
81656;SDS011;71067;51.482;-0.580;2023-07-20T02:47:23;3.03;;;1.85;;
81656;SDS011;71067;51.482;-0.580;2023-07-20T02:49:48;4.00;;;1.95;;
81656;SDS011;71067;51.482;-0.580;2023-07-20T02:52:14;3.08;;;1.92;;
81656;SDS011;71067;51.482;-0.580;2023-07-20T02:54:39;3.80;;;1.88;;
81656;SDS011;71067;51.482;-0.580;2023-07-20T02:57:04;3.00;;;1.90;;
81656;SDS011;71067;51.482;-0.580;2023-07-20T02:59:30;3.80;;;1.80;;
81656;SDS011;71067;51.482;-0.580;2023-07-20T03:01:55;4.68;;;2.10;;
81656;SDS011;71067;51.482;-0.580;2023-07-20T03:04:22;2.85;;;1.90;;
81656;SDS011;71067;51.482;-0.580;2023-07-20T03:06:49;3.17;;;1.90;;
81656;SDS011;71067;51.482;-0.580;2023-07-20T03:09:14;3.25;;;1.80;;
81656;SDS011;71067;51.482;-0.580;2023-07-20T03:11:40;3.88;;;2.20;;
81656;SDS011;71067;51.482;-0.580;2023-07-20T03:14:06;2.67;;;1.73;;
81656;SDS011;71067;51.482;-0.580;2023-07-20T03:16:31;3.97;;;2.55;;
81656;SDS011;71067;51.482;-0.580;2023-07-20T03:18:58;3.25;;;1.83;;
81656;SDS011;71067;51.482;-0.580;2023-07-20T03:21:24;2.97;;;1.83;;
81656;SDS011;71067;51.482;-0.580;2023-07-20T03:23:50;3.13;;;2.00;;
81656;SDS011;71067;51.482;-0.580;2023-07-20T03:26:15;3.03;;;2.00;;
81656;SDS011;71067;51.482;-0.580;2023-07-20T03:28:41;3.90;;;2.00;;
81656;SDS011;71067;51.482;-0.580;2023-07-20T03:31:06;3.58;;;1.85;;
81656;SDS011;71067;51.482;-0.580;2023-07-20T03:33:31;3.78;;;2.00;;
81656;SDS011;71067;51.482;-0.580;2023-07-20T03:35:57;2.95;;;2.10;;
81656;SDS011;71067;51.482;-0.580;2023-07-20T03:38:24;4.03;;;2.20;;
81656;SDS011;71067;51.482;-0.580;2023-07-20T03:40:57;3.72;;;1.90;;
81656;SDS011;71067;51.482;-0.580;2023-07-20T03:43:25;2.60;;;2.00;;
81656;SDS011;71067;51.482;-0.580;2023-07-20T03:45:51;3.55;;;2.20;;
81656;SDS011;71067;51.482;-0.580;2023-07-20T03:48:21;3.70;;;2.30;;
81656;SDS011;71067;51.482;-0.580;2023-07-20T03:50:47;3.58;;;2.00;;
81656;SDS011;71067;51.482;-0.580;2023-07-20T03:53:14;3.50;;;2.00;;
81656;SDS011;71067;51.482;-0.580;2023-07-20T03:55:40;3.70;;;2.17;;
81656;SDS011;71067;51.482;-0.580;2023-07-20T03:58:06;2.83;;;2.10;;
81656;SDS011;71067;51.482;-0.580;2023-07-20T04:00:32;3.92;;;2.10;;
81656;SDS011;71067;51.482;-0.580;2023-07-20T04:02:59;3.40;;;2.22;;
81656;SDS011;71067;51.482;-0.580;2023-07-20T04:05:24;3.58;;;2.05;;
81656;SDS011;71067;51.482;-0.580;2023-07-20T04:07:50;3.22;;;2.15;;
81656;SDS011;71067;51.482;-0.580;2023-07-20T04:10:16;3.75;;;2.13;;
81656;SDS011;71067;51.482;-0.580;2023-07-20T04:12:41;4.38;;;2.25;;
81656;SDS011;71067;51.482;-0.580;2023-07-20T04:15:07;3.23;;;2.50;;
81656;SDS011;71067;51.482;-0.580;2023-07-20T04:17:33;3.75;;;2.42;;
81656;SDS011;71067;51.482;-0.580;2023-07-20T04:19:58;4.27;;;2.20;;
81656;SDS011;71067;51.482;-0.580;2023-07-20T04:22:23;3.00;;;2.20;;
81656;SDS011;71067;51.482;-0.580;2023-07-20T04:24:49;3.47;;;2.20;;
81656;SDS011;71067;51.482;-0.580;2023-07-20T04:27:14;5.00;;;2.30;;
81656;SDS011;71067;51.482;-0.580;2023-07-20T04:29:39;3.17;;;2.27;;
81656;SDS011;71067;51.482;-0.580;2023-07-20T04:32:05;3.88;;;2.55;;
81656;SDS011;71067;51.482;-0.580;2023-07-20T04:34:31;3.42;;;2.33;;
81656;SDS011;71067;51.482;-0.580;2023-07-20T04:36:56;3.42;;;2.42;;
81656;SDS011;71067;51.482;-0.580;2023-07-20T04:39:21;3.87;;;2.40;;
81656;SDS011;71067;51.482;-0.580;2023-07-20T04:41:46;4.18;;;2.60;;
81656;SDS011;71067;51.482;-0.580;2023-07-20T04:44:13;3.10;;;2.20;;
81656;SDS011;71067;51.482;-0.580;2023-07-20T04:46:39;3.20;;;2.03;;
81656;SDS011;71067;51.482;-0.580;2023-07-20T04:49:05;4.00;;;2.60;;
81656;SDS011;71067;51.482;-0.580;2023-07-20T04:51:30;3.90;;;2.20;;
81656;SDS011;71067;51.482;-0.580;2023-07-20T04:53:56;4.18;;;2.42;;
81656;SDS011;71067;51.482;-0.580;2023-07-20T04:56:22;3.55;;;2.40;;
81656;SDS011;71067;51.482;-0.580;2023-07-20T04:58:48;3.95;;;2.13;;
81656;SDS011;71067;51.482;-0.580;2023-07-20T05:01:13;4.38;;;2.22;;
81656;SDS011;71067;51.482;-0.580;2023-07-20T05:03:39;3.20;;;1.93;;
81656;SDS011;71067;51.482;-0.580;2023-07-20T05:06:04;2.80;;;2.20;;
81656;SDS011;71067;51.482;-0.580;2023-07-20T05:08:29;4.60;;;2.50;;
81656;SDS011;71067;51.482;-0.580;2023-07-20T05:10:55;4.97;;;2.63;;
81656;SDS011;71067;51.482;-0.580;2023-07-20T05:13:20;5.40;;;2.57;;
81656;SDS011;71067;51.482;-0.580;2023-07-20T05:15:45;3.58;;;2.50;;
81656;SDS011;71067;51.482;-0.580;2023-07-20T05:18:11;4.35;;;2.47;;
81656;SDS011;71067;51.482;-0.580;2023-07-20T05:20:36;4.75;;;2.47;;
81656;SDS011;71067;51.482;-0.580;2023-07-20T05:23:02;3.72;;;2.40;;
81656;SDS011;71067;51.482;-0.580;2023-07-20T05:25:27;5.45;;;2.13;;
81656;SDS011;71067;51.482;-0.580;2023-07-20T05:27:53;3.80;;;2.40;;
81656;SDS011;71067;51.482;-0.580;2023-07-20T05:30:20;4.00;;;2.63;;
81656;SDS011;71067;51.482;-0.580;2023-07-20T05:32:46;3.80;;;2.75;;
81656;SDS011;71067;51.482;-0.580;2023-07-20T05:35:15;4.40;;;2.25;;
81656;SDS011;71067;51.482;-0.580;2023-07-20T05:37:42;6.13;;;2.70;;
81656;SDS011;71067;51.482;-0.580;2023-07-20T05:40:07;4.07;;;2.57;;
81656;SDS011;71067;51.482;-0.580;2023-07-20T05:42:33;3.20;;;2.33;;
81656;SDS011;71067;51.482;-0.580;2023-07-20T05:44:59;2.72;;;2.30;;
81656;SDS011;71067;51.482;-0.580;2023-07-20T05:47:24;4.43;;;2.67;;
81656;SDS011;71067;51.482;-0.580;2023-07-20T05:49:49;3.97;;;2.42;;
81656;SDS011;71067;51.482;-0.580;2023-07-20T05:52:14;4.20;;;2.70;;
81656;SDS011;71067;51.482;-0.580;2023-07-20T05:54:40;3.35;;;2.20;;
81656;SDS011;71067;51.482;-0.580;2023-07-20T05:57:05;5.15;;;2.63;;
81656;SDS011;71067;51.482;-0.580;2023-07-20T05:59:30;4.15;;;2.65;;
81656;SDS011;71067;51.482;-0.580;2023-07-20T06:01:56;5.15;;;2.97;;
81656;SDS011;71067;51.482;-0.580;2023-07-20T06:04:22;3.22;;;2.50;;
81656;SDS011;71067;51.482;-0.580;2023-07-20T06:06:47;4.10;;;2.30;;
81656;SDS011;71067;51.482;-0.580;2023-07-20T06:09:13;4.38;;;2.55;;
81656;SDS011;71067;51.482;-0.580;2023-07-20T06:11:39;3.55;;;2.38;;
81656;SDS011;71067;51.482;-0.580;2023-07-20T06:14:04;3.70;;;2.30;;
81656;SDS011;71067;51.482;-0.580;2023-07-20T06:16:30;4.18;;;2.47;;
81656;SDS011;71067;51.482;-0.580;2023-07-20T06:18:55;5.88;;;2.78;;
81656;SDS011;71067;51.482;-0.580;2023-07-20T06:21:21;4.80;;;2.85;;
81656;SDS011;71067;51.482;-0.580;2023-07-20T06:23:46;5.57;;;2.70;;
81656;SDS011;71067;51.482;-0.580;2023-07-20T06:26:12;5.07;;;2.30;;
81656;SDS011;71067;51.482;-0.580;2023-07-20T06:28:37;3.47;;;2.50;;
81656;SDS011;71067;51.482;-0.580;2023-07-20T06:31:03;3.70;;;2.53;;
81656;SDS011;71067;51.482;-0.580;2023-07-20T06:33:29;4.10;;;2.58;;
81656;SDS011;71067;51.482;-0.580;2023-07-20T06:35:54;4.32;;;2.67;;
81656;SDS011;71067;51.482;-0.580;2023-07-20T06:38:21;3.88;;;2.70;;
81656;SDS011;71067;51.482;-0.580;2023-07-20T06:40:48;5.47;;;2.80;;
81656;SDS011;71067;51.482;-0.580;2023-07-20T06:43:13;5.43;;;2.72;;
81656;SDS011;71067;51.482;-0.580;2023-07-20T06:45:39;3.67;;;2.70;;
81656;SDS011;71067;51.482;-0.580;2023-07-20T06:48:04;3.38;;;2.22;;
81656;SDS011;71067;51.482;-0.580;2023-07-20T06:50:30;5.20;;;2.55;;
81656;SDS011;71067;51.482;-0.580;2023-07-20T06:52:55;6.90;;;2.92;;
81656;SDS011;71067;51.482;-0.580;2023-07-20T06:55:20;5.47;;;2.80;;
81656;SDS011;71067;51.482;-0.580;2023-07-20T06:57:46;3.28;;;2.58;;
81656;SDS011;71067;51.482;-0.580;2023-07-20T07:00:11;4.28;;;2.40;;
81656;SDS011;71067;51.482;-0.580;2023-07-20T07:02:38;4.20;;;2.88;;
81656;SDS011;71067;51.482;-0.580;2023-07-20T07:05:04;5.60;;;2.25;;
81656;SDS011;71067;51.482;-0.580;2023-07-20T07:07:29;4.95;;;2.80;;
81656;SDS011;71067;51.482;-0.580;2023-07-20T07:09:54;3.40;;;2.53;;
81656;SDS011;71067;51.482;-0.580;2023-07-20T07:12:20;4.57;;;2.55;;
81656;SDS011;71067;51.482;-0.580;2023-07-20T07:14:45;3.42;;;2.58;;
81656;SDS011;71067;51.482;-0.580;2023-07-20T07:17:11;4.33;;;2.23;;
81656;SDS011;71067;51.482;-0.580;2023-07-20T07:19:36;4.32;;;2.78;;
81656;SDS011;71067;51.482;-0.580;2023-07-20T07:22:04;4.97;;;2.72;;
81656;SDS011;71067;51.482;-0.580;2023-07-20T07:24:29;4.88;;;2.38;;
81656;SDS011;71067;51.482;-0.580;2023-07-20T07:26:58;4.22;;;2.47;;
81656;SDS011;71067;51.482;-0.580;2023-07-20T07:29:24;4.60;;;2.80;;
81656;SDS011;71067;51.482;-0.580;2023-07-20T07:31:50;6.18;;;2.92;;
81656;SDS011;71067;51.482;-0.580;2023-07-20T07:34:15;4.88;;;2.78;;
81656;SDS011;71067;51.482;-0.580;2023-07-20T07:36:41;3.90;;;2.63;;
81656;SDS011;71067;51.482;-0.580;2023-07-20T07:39:06;4.13;;;2.53;;
81656;SDS011;71067;51.482;-0.580;2023-07-20T07:41:31;5.37;;;2.50;;
81656;SDS011;71067;51.482;-0.580;2023-07-20T07:43:57;5.47;;;2.75;;
81656;SDS011;71067;51.482;-0.580;2023-07-20T07:46:22;6.73;;;2.50;;
81656;SDS011;71067;51.482;-0.580;2023-07-20T07:48:47;3.78;;;2.40;;
81656;SDS011;71067;51.482;-0.580;2023-07-20T07:51:13;3.58;;;2.10;;
81656;SDS011;71067;51.482;-0.580;2023-07-20T07:53:39;3.85;;;2.50;;
81656;SDS011;71067;51.482;-0.580;2023-07-20T07:56:06;2.92;;;2.03;;
81656;SDS011;71067;51.482;-0.580;2023-07-20T07:58:32;4.90;;;2.33;;
81656;SDS011;71067;51.482;-0.580;2023-07-20T08:00:58;4.15;;;2.10;;
81656;SDS011;71067;51.482;-0.580;2023-07-20T08:03:23;4.50;;;2.10;;
81656;SDS011;71067;51.482;-0.580;2023-07-20T08:05:49;3.42;;;2.10;;
81656;SDS011;71067;51.482;-0.580;2023-07-20T08:08:14;3.65;;;1.95;;
81656;SDS011;71067;51.482;-0.580;2023-07-20T08:10:40;3.60;;;1.95;;
81656;SDS011;71067;51.482;-0.580;2023-07-20T08:13:05;3.33;;;2.00;;
81656;SDS011;71067;51.482;-0.580;2023-07-20T08:15:30;3.53;;;1.90;;
81656;SDS011;71067;51.482;-0.580;2023-07-20T08:17:56;3.20;;;1.90;;
81656;SDS011;71067;51.482;-0.580;2023-07-20T08:20:21;5.55;;;1.92;;
81656;SDS011;71067;51.482;-0.580;2023-07-20T08:22:51;3.42;;;1.58;;
81656;SDS011;71067;51.482;-0.580;2023-07-20T08:25:18;3.97;;;1.80;;
81656;SDS011;71067;51.482;-0.580;2023-07-20T08:27:43;3.95;;;1.77;;
81656;SDS011;71067;51.482;-0.580;2023-07-20T08:30:11;2.67;;;1.50;;
81656;SDS011;71067;51.482;-0.580;2023-07-20T08:32:36;2.92;;;1.70;;
81656;SDS011;71067;51.482;-0.580;2023-07-20T08:35:02;4.57;;;1.67;;
81656;SDS011;71067;51.482;-0.580;2023-07-20T08:37:27;3.40;;;1.63;;
81656;SDS011;71067;51.482;-0.580;2023-07-20T08:39:52;2.93;;;1.60;;
81656;SDS011;71067;51.482;-0.580;2023-07-20T08:42:18;3.83;;;2.00;;
81656;SDS011;71067;51.482;-0.580;2023-07-20T08:44:43;4.47;;;1.40;;
81656;SDS011;71067;51.482;-0.580;2023-07-20T08:47:10;3.22;;;1.63;;
81656;SDS011;71067;51.482;-0.580;2023-07-20T08:49:37;4.15;;;1.63;;
81656;SDS011;71067;51.482;-0.580;2023-07-20T08:52:04;4.22;;;2.05;;
81656;SDS011;71067;51.482;-0.580;2023-07-20T08:54:30;3.25;;;1.70;;
81656;SDS011;71067;51.482;-0.580;2023-07-20T08:57:02;3.40;;;1.67;;
81656;SDS011;71067;51.482;-0.580;2023-07-20T08:59:30;4.47;;;2.10;;
81656;SDS011;71067;51.482;-0.580;2023-07-20T09:01:59;3.47;;;1.63;;
81656;SDS011;71067;51.482;-0.580;2023-07-20T09:04:25;2.85;;;1.55;;
81656;SDS011;71067;51.482;-0.580;2023-07-20T09:06:50;2.78;;;1.50;;
81656;SDS011;71067;51.482;-0.580;2023-07-20T09:09:15;3.72;;;1.42;;
81656;SDS011;71067;51.482;-0.580;2023-07-20T09:11:41;3.15;;;1.50;;
81656;SDS011;71067;51.482;-0.580;2023-07-20T09:14:08;2.63;;;1.38;;
81656;SDS011;71067;51.482;-0.580;2023-07-20T09:16:47;3.95;;;1.80;;
81656;SDS011;71067;51.482;-0.580;2023-07-20T09:19:19;4.07;;;1.70;;
81656;SDS011;71067;51.482;-0.580;2023-07-20T09:21:49;2.25;;;1.30;;
81656;SDS011;71067;51.482;-0.580;2023-07-20T09:24:16;3.78;;;1.50;;
81656;SDS011;71067;51.482;-0.580;2023-07-20T09:26:43;3.90;;;1.70;;
81656;SDS011;71067;51.482;-0.580;2023-07-20T09:29:10;2.95;;;1.50;;
81656;SDS011;71067;51.482;-0.580;2023-07-20T09:31:36;2.40;;;1.30;;
81656;SDS011;71067;51.482;-0.580;2023-07-20T09:34:01;4.72;;;1.40;;
81656;SDS011;71067;51.482;-0.580;2023-07-20T09:36:28;3.20;;;1.20;;
81656;SDS011;71067;51.482;-0.580;2023-07-20T09:38:54;3.00;;;1.33;;
81656;SDS011;71067;51.482;-0.580;2023-07-20T09:41:20;2.97;;;1.30;;
81656;SDS011;71067;51.482;-0.580;2023-07-20T09:43:46;4.25;;;1.40;;
81656;SDS011;71067;51.482;-0.580;2023-07-20T09:46:11;2.60;;;1.20;;
81656;SDS011;71067;51.482;-0.580;2023-07-20T09:48:37;2.60;;;1.20;;
81656;SDS011;71067;51.482;-0.580;2023-07-20T09:51:02;2.55;;;1.10;;
81656;SDS011;71067;51.482;-0.580;2023-07-20T09:53:29;2.65;;;1.40;;
81656;SDS011;71067;51.482;-0.580;2023-07-20T09:55:55;2.03;;;1.10;;
81656;SDS011;71067;51.482;-0.580;2023-07-20T09:58:22;5.10;;;1.40;;
81656;SDS011;71067;51.482;-0.580;2023-07-20T10:00:48;2.92;;;1.13;;
81656;SDS011;71067;51.482;-0.580;2023-07-20T10:03:20;2.90;;;1.38;;
81656;SDS011;71067;51.482;-0.580;2023-07-20T10:05:47;3.97;;;1.55;;
81656;SDS011;71067;51.482;-0.580;2023-07-20T10:08:17;3.30;;;1.30;;
81656;SDS011;71067;51.482;-0.580;2023-07-20T10:10:45;1.95;;;1.20;;
81656;SDS011;71067;51.482;-0.580;2023-07-20T10:13:21;3.08;;;1.25;;
81656;SDS011;71067;51.482;-0.580;2023-07-20T10:15:52;3.30;;;1.33;;
81656;SDS011;71067;51.482;-0.580;2023-07-20T10:21:13;3.60;;;1.27;;
81656;SDS011;71067;51.482;-0.580;2023-07-20T10:23:42;2.45;;;1.10;;
81656;SDS011;71067;51.482;-0.580;2023-07-20T10:26:07;2.55;;;1.00;;
81656;SDS011;71067;51.482;-0.580;2023-07-20T10:28:34;2.75;;;1.20;;
81656;SDS011;71067;51.482;-0.580;2023-07-20T10:30:59;2.78;;;1.30;;
81656;SDS011;71067;51.482;-0.580;2023-07-20T10:33:24;2.05;;;1.00;;
81656;SDS011;71067;51.482;-0.580;2023-07-20T10:35:50;1.60;;;1.00;;
81656;SDS011;71067;51.482;-0.580;2023-07-20T10:38:16;1.90;;;0.85;;
81656;SDS011;71067;51.482;-0.580;2023-07-20T10:40:41;1.88;;;1.30;;
81656;SDS011;71067;51.482;-0.580;2023-07-20T10:43:07;1.83;;;1.10;;
81656;SDS011;71067;51.482;-0.580;2023-07-20T10:45:35;2.88;;;1.27;;
81656;SDS011;71067;51.482;-0.580;2023-07-20T10:48:24;2.80;;;1.20;;
81656;SDS011;71067;51.482;-0.580;2023-07-20T10:51:09;1.92;;;0.80;;
81656;SDS011;71067;51.482;-0.580;2023-07-20T10:53:41;2.33;;;1.00;;
81656;SDS011;71067;51.482;-0.580;2023-07-20T10:56:13;2.00;;;1.30;;
81656;SDS011;71067;51.482;-0.580;2023-07-20T10:58:40;2.97;;;1.10;;
81656;SDS011;71067;51.482;-0.580;2023-07-20T11:01:07;2.05;;;1.08;;
81656;SDS011;71067;51.482;-0.580;2023-07-20T11:03:34;2.28;;;1.27;;
81656;SDS011;71067;51.482;-0.580;2023-07-20T11:06:29;3.53;;;1.10;;
81656;SDS011;71067;51.482;-0.580;2023-07-20T11:11:28;6.93;;;1.70;;
81656;SDS011;71067;51.482;-0.580;2023-07-20T11:14:01;2.50;;;1.30;;
81656;SDS011;71067;51.482;-0.580;2023-07-20T11:19:00;12.75;;;1.73;;
81656;SDS011;71067;51.482;-0.580;2023-07-20T11:21:25;4.32;;;1.90;;
81656;SDS011;71067;51.482;-0.580;2023-07-20T11:23:54;3.95;;;1.60;;
81656;SDS011;71067;51.482;-0.580;2023-07-20T11:26:20;3.70;;;1.58;;
81656;SDS011;71067;51.482;-0.580;2023-07-20T11:28:49;3.10;;;1.23;;
81656;SDS011;71067;51.482;-0.580;2023-07-20T11:31:16;3.83;;;1.20;;
81656;SDS011;71067;51.482;-0.580;2023-07-20T11:33:42;2.63;;;1.10;;
81656;SDS011;71067;51.482;-0.580;2023-07-20T11:36:08;2.80;;;1.10;;
81656;SDS011;71067;51.482;-0.580;2023-07-20T11:38:34;3.90;;;1.30;;
81656;SDS011;71067;51.482;-0.580;2023-07-20T11:40:59;2.05;;;1.20;;
81656;SDS011;71067;51.482;-0.580;2023-07-20T11:43:24;4.68;;;1.20;;
81656;SDS011;71067;51.482;-0.580;2023-07-20T11:45:51;1.98;;;1.23;;
81656;SDS011;71067;51.482;-0.580;2023-07-20T11:48:16;1.75;;;0.98;;
81656;SDS011;71067;51.482;-0.580;2023-07-20T11:50:42;2.53;;;0.93;;
81656;SDS011;71067;51.482;-0.580;2023-07-20T11:53:08;2.83;;;1.38;;
81656;SDS011;71067;51.482;-0.580;2023-07-20T11:55:33;2.33;;;1.25;;
81656;SDS011;71067;51.482;-0.580;2023-07-20T11:58:06;1.77;;;1.10;;
81656;SDS011;71067;51.482;-0.580;2023-07-20T12:00:32;2.63;;;1.00;;
81656;SDS011;71067;51.482;-0.580;2023-07-20T12:02:59;2.10;;;0.90;;
81656;SDS011;71067;51.482;-0.580;2023-07-20T12:05:24;2.20;;;1.10;;
81656;SDS011;71067;51.482;-0.580;2023-07-20T12:07:51;2.17;;;1.10;;
81656;SDS011;71067;51.482;-0.580;2023-07-20T12:10:22;2.67;;;1.10;;
81656;SDS011;71067;51.482;-0.580;2023-07-20T12:12:53;2.63;;;1.10;;
81656;SDS011;71067;51.482;-0.580;2023-07-20T12:15:20;1.80;;;1.17;;
81656;SDS011;71067;51.482;-0.580;2023-07-20T12:17:48;2.85;;;1.15;;
81656;SDS011;71067;51.482;-0.580;2023-07-20T12:20:24;2.28;;;1.10;;
81656;SDS011;71067;51.482;-0.580;2023-07-20T12:22:51;1.80;;;1.10;;
81656;SDS011;71067;51.482;-0.580;2023-07-20T12:25:16;1.85;;;1.10;;
81656;SDS011;71067;51.482;-0.580;2023-07-20T12:27:44;2.58;;;1.05;;
81656;SDS011;71067;51.482;-0.580;2023-07-20T12:30:10;10.13;;;2.20;;
81656;SDS011;71067;51.482;-0.580;2023-07-20T12:32:36;1.98;;;1.10;;
81656;SDS011;71067;51.482;-0.580;2023-07-20T12:35:01;2.40;;;1.00;;
81656;SDS011;71067;51.482;-0.580;2023-07-20T12:37:26;3.90;;;1.08;;
81656;SDS011;71067;51.482;-0.580;2023-07-20T12:39:52;1.50;;;1.00;;
81656;SDS011;71067;51.482;-0.580;2023-07-20T12:42:18;1.88;;;1.08;;
81656;SDS011;71067;51.482;-0.580;2023-07-20T12:44:43;2.25;;;1.67;;
81656;SDS011;71067;51.482;-0.580;2023-07-20T12:47:08;3.90;;;1.65;;
81656;SDS011;71067;51.482;-0.580;2023-07-20T12:49:34;5.43;;;4.13;;
81656;SDS011;71067;51.482;-0.580;2023-07-20T12:51:59;2.78;;;2.00;;
81656;SDS011;71067;51.482;-0.580;2023-07-20T12:54:25;3.67;;;1.55;;
81656;SDS011;71067;51.482;-0.580;2023-07-20T12:56:50;2.17;;;1.20;;
81656;SDS011;71067;51.482;-0.580;2023-07-20T12:59:15;2.03;;;1.20;;
81656;SDS011;71067;51.482;-0.580;2023-07-20T13:01:41;1.83;;;1.00;;
81656;SDS011;71067;51.482;-0.580;2023-07-20T13:04:06;2.13;;;1.30;;
81656;SDS011;71067;51.482;-0.580;2023-07-20T13:06:34;2.13;;;1.10;;
81656;SDS011;71067;51.482;-0.580;2023-07-20T13:08:59;2.13;;;1.00;;
81656;SDS011;71067;51.482;-0.580;2023-07-20T13:11:25;3.33;;;1.00;;
81656;SDS011;71067;51.482;-0.580;2023-07-20T13:13:50;2.05;;;0.90;;
81656;SDS011;71067;51.482;-0.580;2023-07-20T13:16:16;2.40;;;1.20;;
81656;SDS011;71067;51.482;-0.580;2023-07-20T13:18:41;2.15;;;1.15;;
81656;SDS011;71067;51.482;-0.580;2023-07-20T13:21:07;1.90;;;1.00;;
81656;SDS011;71067;51.482;-0.580;2023-07-20T13:23:36;3.75;;;1.42;;
81656;SDS011;71067;51.482;-0.580;2023-07-20T13:26:02;2.17;;;1.15;;
81656;SDS011;71067;51.482;-0.580;2023-07-20T13:28:28;1.83;;;1.08;;
81656;SDS011;71067;51.482;-0.580;2023-07-20T13:30:53;1.60;;;1.00;;
81656;SDS011;71067;51.482;-0.580;2023-07-20T13:33:18;8.18;;;1.10;;
81656;SDS011;71067;51.482;-0.580;2023-07-20T13:35:43;5.00;;;1.58;;
81656;SDS011;71067;51.482;-0.580;2023-07-20T13:38:09;2.13;;;1.10;;
81656;SDS011;71067;51.482;-0.580;2023-07-20T13:40:34;1.80;;;0.90;;
81656;SDS011;71067;51.482;-0.580;2023-07-20T13:43:00;1.90;;;1.10;;
81656;SDS011;71067;51.482;-0.580;2023-07-20T13:45:25;2.03;;;0.90;;
81656;SDS011;71067;51.482;-0.580;2023-07-20T13:47:51;1.60;;;0.97;;
81656;SDS011;71067;51.482;-0.580;2023-07-20T13:50:16;2.10;;;0.90;;
81656;SDS011;71067;51.482;-0.580;2023-07-20T13:52:41;3.10;;;1.08;;
81656;SDS011;71067;51.482;-0.580;2023-07-20T13:55:07;2.60;;;1.02;;
81656;SDS011;71067;51.482;-0.580;2023-07-20T13:57:33;2.53;;;1.05;;
81656;SDS011;71067;51.482;-0.580;2023-07-20T13:59:58;2.03;;;1.00;;
81656;SDS011;71067;51.482;-0.580;2023-07-20T14:02:25;4.93;;;1.20;;
81656;SDS011;71067;51.482;-0.580;2023-07-20T14:04:50;2.35;;;1.27;;
81656;SDS011;71067;51.482;-0.580;2023-07-20T14:07:15;3.78;;;1.20;;
81656;SDS011;71067;51.482;-0.580;2023-07-20T14:09:41;4.50;;;1.20;;
81656;SDS011;71067;51.482;-0.580;2023-07-20T14:12:06;2.85;;;1.25;;
81656;SDS011;71067;51.482;-0.580;2023-07-20T14:14:33;2.05;;;1.23;;
81656;SDS011;71067;51.482;-0.580;2023-07-20T14:16:58;2.63;;;1.35;;
81656;SDS011;71067;51.482;-0.580;2023-07-20T14:19:24;3.50;;;1.10;;
81656;SDS011;71067;51.482;-0.580;2023-07-20T14:21:49;2.42;;;1.30;;
81656;SDS011;71067;51.482;-0.580;2023-07-20T14:24:15;3.05;;;1.20;;
81656;SDS011;71067;51.482;-0.580;2023-07-20T14:26:40;2.10;;;1.30;;
81656;SDS011;71067;51.482;-0.580;2023-07-20T14:29:06;2.00;;;1.08;;
81656;SDS011;71067;51.482;-0.580;2023-07-20T14:31:31;1.83;;;0.98;;
81656;SDS011;71067;51.482;-0.580;2023-07-20T14:33:57;2.10;;;1.10;;
81656;SDS011;71067;51.482;-0.580;2023-07-20T14:36:22;1.90;;;1.10;;
81656;SDS011;71067;51.482;-0.580;2023-07-20T14:38:47;2.05;;;1.00;;
81656;SDS011;71067;51.482;-0.580;2023-07-20T14:41:13;2.33;;;1.00;;
81656;SDS011;71067;51.482;-0.580;2023-07-20T14:43:38;2.10;;;1.00;;